createdAt,value
2023-04-15T00:03:33.642Z,22.1
2023-04-15T00:09:24.720Z,23.6
2023-04-15T00:15:00.613Z,23.7
2023-04-15T00:20:53.405Z,22.9
2023-04-15T00:26:44.181Z,22.6
2023-04-15T00:32:36.079Z,22.3
2023-04-15T00:38:27.741Z,22.9
2023-04-15T00:44:03.510Z,24.1
2023-04-15T00:49:56.037Z,23.7
2023-04-15T00:55:48.159Z,22.9
2023-04-15T01:01:39.189Z,22.2
2023-04-15T01:07:17.225Z,22.3
2023-04-15T01:13:08.699Z,23
2023-04-15T01:19:00.530Z,24.1
2023-04-15T01:24:52.417Z,23.1
2023-04-15T01:30:44.207Z,22.5
2023-04-15T01:36:35.681Z,22.2
2023-04-15T01:42:27.367Z,22
2023-04-15T01:48:19.788Z,23
2023-04-15T01:54:10.113Z,23.9
2023-04-15T01:59:46.724Z,22.8
2023-04-15T02:05:24.190Z,22.3
2023-04-15T02:11:15.720Z,22.3
2023-04-15T02:17:06.859Z,22.1
2023-04-15T02:22:59.098Z,23.1
2023-04-15T02:28:21.843Z,23.7
2023-04-15T02:34:14.068Z,22.8
2023-04-15T02:40:05.575Z,22.2
2023-04-15T02:45:56.934Z,21.9
2023-04-15T02:51:49.080Z,21.8
2023-04-15T02:57:40.642Z,21.6
2023-04-15T03:03:33.245Z,21.8
2023-04-15T03:09:24.980Z,23.3
2023-04-15T03:15:16.602Z,23.4
2023-04-15T03:21:07.860Z,22.5
2023-04-15T03:26:59.491Z,22.1
2023-04-15T03:32:51.097Z,21.8
2023-04-15T03:38:27.597Z,21.6
2023-04-15T03:44:04.165Z,21.6
2023-04-15T03:50:11.613Z,21.5
2023-04-15T03:56:02.386Z,21.5
2023-04-15T04:01:53.721Z,22.9
2023-04-15T04:07:47.345Z,23.6
2023-04-15T04:13:38.265Z,22.6
2023-04-15T04:19:30.225Z,22.1
2023-04-15T04:25:06.217Z,21.9
2023-04-15T04:30:42.708Z,21.9
2023-04-15T04:36:34.684Z,21.7
2023-04-15T04:42:26.507Z,21.5
2023-04-15T04:48:18.282Z,21.4
2023-04-15T04:54:09.596Z,23
2023-04-15T05:00:01.434Z,24.5
2023-04-15T05:05:54.188Z,23.3
2023-04-15T05:11:30.284Z,22.4
2023-04-15T05:17:24.450Z,21.9
2023-04-15T05:23:17.935Z,21.7
2023-04-15T05:29:10.532Z,21.7
2023-04-15T05:35:01.910Z,21.6
2023-04-15T05:40:53.914Z,21.6
2023-04-15T05:46:46.145Z,22.8
2023-04-15T05:52:38.707Z,24.2
2023-04-15T05:58:31.813Z,23.2
2023-04-15T06:04:09.530Z,22.6
2023-04-15T06:09:30.491Z,22.3
2023-04-15T06:15:06.950Z,22.1
2023-04-15T06:20:59.418Z,23.6
2023-04-15T06:26:51.729Z,23.7
2023-04-15T06:32:12.837Z,22.6
2023-04-15T06:38:05.375Z,22.4
2023-04-15T06:43:42.860Z,22.3
2023-04-15T06:49:19.401Z,23.4
2023-04-15T06:55:10.831Z,25.1
2023-04-15T07:01:01.862Z,23.9
2023-04-15T07:06:38.078Z,23.1
2023-04-15T07:12:29.029Z,22.8
2023-04-15T07:18:23.407Z,22.6
2023-04-15T07:24:14.404Z,22.4
2023-04-15T07:30:07.164Z,22.2
2023-04-15T07:35:58.648Z,22.1
2023-04-15T07:41:49.366Z,21.8
2023-04-15T07:47:43.413Z,21.6
2023-04-15T07:53:36.897Z,21.4
2023-04-15T07:59:28.534Z,21.4
2023-04-15T08:11:00.149Z,21.1
2023-04-15T08:16:36.456Z,21
2023-04-15T08:22:34.312Z,20.8
2023-04-15T08:28:26.584Z,20.5
2023-04-15T08:34:17.642Z,20.2
2023-04-15T08:39:55.144Z,20.1
2023-04-15T08:45:30.740Z,19.9
2023-04-15T08:51:07.688Z,19.8
2023-04-15T08:57:00.133Z,19.6
2023-04-15T09:02:51.782Z,19.6
2023-04-15T09:08:43.594Z,19.6
2023-04-15T09:14:37.943Z,19.4
2023-04-15T09:20:29.127Z,19.3
2023-04-15T09:26:22.387Z,19.3
2023-04-15T09:32:14.769Z,19.1
2023-04-15T09:38:20.475Z,19.3
2023-04-15T09:44:12.366Z,19.4
2023-04-15T09:49:36.246Z,19.3
2023-04-15T09:55:41.397Z,19.2
2023-04-15T10:01:18.196Z,19.2
2023-04-15T10:06:56.070Z,19.1
2023-04-15T10:12:47.209Z,19.1
2023-04-15T10:18:23.360Z,19.2
2023-04-15T10:23:45.754Z,19.2
2023-04-15T10:29:06.449Z,19.2
2023-04-15T10:34:57.910Z,19.4
2023-04-15T10:40:49.063Z,19.4
2023-04-15T10:46:25.417Z,19.1
2023-04-15T10:52:01.332Z,19.2
2023-04-15T10:57:52.135Z,19.2
2023-04-15T11:03:29.035Z,19.1
2023-04-15T11:09:21.453Z,19.2
2023-04-15T11:15:13.256Z,19.2
2023-04-15T11:21:05.521Z,19.1
2023-04-15T11:27:10.875Z,19.1
2023-04-15T11:32:47.722Z,19.1
2023-04-15T11:38:39.124Z,19.2
2023-04-15T11:44:43.104Z,19.2
2023-04-15T11:49:49.038Z,19.3
2023-04-15T11:55:09.884Z,19.1
2023-04-15T12:00:52.066Z,19.1
2023-04-15T12:06:32.142Z,19.1
2023-04-15T12:12:22.898Z,19.1
2023-04-15T12:18:41.061Z,18.9
2023-04-15T12:24:32.368Z,19.1
2023-04-15T12:30:23.410Z,19
2023-04-15T12:36:02.298Z,19.1
2023-04-15T12:41:24.578Z,19.3
2023-04-15T12:47:15.741Z,19.1
2023-04-15T12:53:07.080Z,19.1
2023-04-15T12:58:29.565Z,19.1
2023-04-15T13:04:22.668Z,19.1
2023-04-15T13:10:20.450Z,19.1
2023-04-15T13:16:11.398Z,19.1
2023-04-15T13:22:02.720Z,18.9
2023-04-15T13:27:55.825Z,19
2023-04-15T13:33:46.878Z,19
2023-04-15T13:39:40.567Z,18.9
2023-04-15T13:45:31.898Z,18.9
2023-04-15T13:51:22.949Z,19
2023-04-15T13:57:45.940Z,18.4
2023-04-15T14:03:23.237Z,17.9
2023-04-15T14:09:16.472Z,18.2
2023-04-15T14:15:10.880Z,18.5
2023-04-15T14:21:06.248Z,18.6
2023-04-15T14:27:10.789Z,18.6
2023-04-15T14:38:54.221Z,19.1
2023-04-15T14:44:45.192Z,18.8
2023-04-15T14:50:37.449Z,18.9
2023-04-15T14:56:28.898Z,18.8
2023-04-15T15:02:37.128Z,18.8
2023-04-15T15:08:31.289Z,18.9
2023-04-15T15:14:44.307Z,18.8
2023-04-15T15:20:48.372Z,18.9
2023-04-15T15:26:39.416Z,19.1
2023-04-15T15:32:32.001Z,18.9
2023-04-15T15:38:24.184Z,18.9
2023-04-15T15:44:00.963Z,18.9
2023-04-15T15:49:54.194Z,18.8
2023-04-15T15:55:15.273Z,18.9
2023-04-15T16:01:18.580Z,18.9
2023-04-15T16:07:40.626Z,18.8
2023-04-15T16:13:32.527Z,18.8
2023-04-15T16:19:25.319Z,18.9
2023-04-15T16:25:34.055Z,18.8
2023-04-15T16:31:44.487Z,18.9
2023-04-15T16:37:36.116Z,18.9
2023-04-15T16:43:28.743Z,18.9
2023-04-15T16:49:19.949Z,18.9
2023-04-15T16:55:12.801Z,19
2023-04-15T17:01:35.845Z,18.9
2023-04-15T17:07:30.320Z,19.1
2023-04-15T17:13:21.439Z,18.9
2023-04-15T17:19:13.926Z,19
2023-04-15T17:24:33.872Z,19.3
2023-04-15T17:30:26.363Z,19.2
2023-04-15T17:37:18.763Z,19.2
2023-04-15T17:43:09.990Z,19.2
2023-04-15T17:49:02.505Z,19.3
2023-04-15T17:54:54.769Z,19.3
2023-04-15T18:00:46.828Z,19.3
2023-04-15T18:06:41.414Z,19.2
2023-04-15T18:12:33.300Z,19.2
2023-04-15T18:18:42.617Z,19.2
2023-04-15T18:24:34.752Z,19.2
2023-04-15T18:30:26.608Z,19.2
2023-04-15T18:36:06.250Z,19.1
2023-04-15T18:41:43.100Z,19.1
2023-04-15T18:47:35.781Z,19.1
2023-04-15T18:53:27.498Z,19.2
2023-04-15T19:00:16.164Z,19.1
2023-04-15T19:06:09.291Z,19.1
2023-04-15T19:12:00.884Z,19.1
2023-04-15T19:17:53.070Z,19.1
2023-04-15T19:23:45.595Z,19.1
2023-04-15T19:29:39.058Z,19.1
2023-04-15T19:35:16.343Z,19.3
2023-04-15T19:40:52.389Z,19.4
2023-04-15T19:46:28.385Z,19.4
2023-04-15T19:52:04.993Z,19.3
2023-04-15T19:57:56.248Z,19.3
2023-04-15T20:03:48.770Z,19.3
2023-04-15T20:09:28.475Z,19.3
2023-04-15T20:16:26.201Z,19.2
2023-04-15T20:22:17.384Z,19.3
2023-04-15T20:28:08.739Z,19.2
2023-04-15T20:34:00.269Z,19.2
2023-04-15T20:39:51.867Z,19.2
2023-04-15T20:45:43.762Z,20.7
2023-04-15T20:51:47.547Z,23.8
2023-04-15T20:57:41.688Z,24.9
2023-04-15T21:03:34.163Z,23.6
2023-04-15T21:09:26.047Z,22.9
2023-04-15T21:15:38.439Z,22.5
2023-04-15T21:21:29.869Z,22.3
2023-04-15T21:27:08.098Z,22.1
2023-04-15T21:32:59.735Z,23.9
2023-04-15T21:38:50.648Z,25.1
2023-04-15T21:44:13.960Z,23.7
2023-04-15T21:51:06.955Z,23.1
2023-04-15T21:56:58.331Z,22.8
2023-04-15T22:02:52.782Z,22.5
2023-04-15T22:08:55.871Z,22.3
2023-04-15T22:14:49.075Z,24.2
2023-04-15T22:20:40.661Z,24.9
2023-04-15T22:27:22.738Z,23.8
2023-04-15T22:33:14.873Z,23.1
2023-04-15T22:39:06.679Z,22.8
2023-04-15T22:44:58.502Z,22.5
2023-04-15T22:50:35.630Z,22.3
2023-04-15T22:56:42.833Z,23.1
2023-04-15T23:02:19.648Z,25.3
2023-04-15T23:08:30.733Z,23.9
2023-04-15T23:14:21.650Z,23.1
2023-04-15T23:20:13.898Z,22.7
2023-04-15T23:26:04.877Z,22.4
2023-04-15T23:31:56.735Z,22.1
2023-04-15T23:37:48.602Z,22
2023-04-15T23:43:40.254Z,23.1
2023-04-15T23:49:17.851Z,24.8
2023-04-15T23:55:10.584Z,23.6
